sensor_id;sensor_type;location;lat;lon;timestamp;pressure;altitude;pressure_sealevel;temperature;humidity
80198;BME280;69517;52.030;7.106;2024-03-25T00:02:14;99688.00;;;21.31;67.67
80198;BME280;69517;52.030;7.106;2024-03-25T00:04:40;99690.06;;;21.28;67.86
80198;BME280;69517;52.030;7.106;2024-03-25T00:07:06;99696.97;;;21.29;67.73
80198;BME280;69517;52.030;7.106;2024-03-25T00:09:32;99701.25;;;21.30;67.60
80198;BME280;69517;52.030;7.106;2024-03-25T00:11:58;99705.69;;;21.29;67.80
80198;BME280;69517;52.030;7.106;2024-03-25T00:14:24;99701.66;;;21.25;67.84
80198;BME280;69517;52.030;7.106;2024-03-25T00:16:51;99698.06;;;21.26;67.67
80198;BME280;69517;52.030;7.106;2024-03-25T00:19:17;99702.22;;;21.29;67.64
80198;BME280;69517;52.030;7.106;2024-03-25T00:21:43;99696.97;;;21.29;67.54
80198;BME280;69517;52.030;7.106;2024-03-25T00:24:09;99704.41;;;21.24;67.76
80198;BME280;69517;52.030;7.106;2024-03-25T00:26:35;99701.78;;;21.24;67.76
80198;BME280;69517;52.030;7.106;2024-03-25T00:29:01;99700.25;;;21.21;67.77
80198;BME280;69517;52.030;7.106;2024-03-25T00:31:26;99701.94;;;21.22;67.92
80198;BME280;69517;52.030;7.106;2024-03-25T00:33:54;99703.72;;;21.22;67.82
80198;BME280;69517;52.030;7.106;2024-03-25T00:36:19;99705.25;;;21.24;67.70
80198;BME280;69517;52.030;7.106;2024-03-25T00:38:46;99706.47;;;21.20;67.73
80198;BME280;69517;52.030;7.106;2024-03-25T00:41:11;99705.75;;;21.18;67.84
80198;BME280;69517;52.030;7.106;2024-03-25T00:43:37;99713.03;;;21.15;67.80
80198;BME280;69517;52.030;7.106;2024-03-25T00:46:03;99710.19;;;21.18;67.75
80198;BME280;69517;52.030;7.106;2024-03-25T00:48:29;99705.50;;;21.21;67.63
80198;BME280;69517;52.030;7.106;2024-03-25T00:50:56;99704.78;;;21.19;67.70
80198;BME280;69517;52.030;7.106;2024-03-25T00:53:22;99705.75;;;21.18;67.63
80198;BME280;69517;52.030;7.106;2024-03-25T00:55:48;99711.97;;;21.17;67.72
80198;BME280;69517;52.030;7.106;2024-03-25T00:58:14;99704.09;;;21.17;67.59
80198;BME280;69517;52.030;7.106;2024-03-25T01:00:40;99702.16;;;21.19;67.76
80198;BME280;69517;52.030;7.106;2024-03-25T01:03:06;99702.88;;;21.21;67.31
80198;BME280;69517;52.030;7.106;2024-03-25T01:05:32;99698.59;;;21.20;67.37
80198;BME280;69517;52.030;7.106;2024-03-25T01:08:00;99704.25;;;21.16;67.46
80198;BME280;69517;52.030;7.106;2024-03-25T01:10:25;99706.72;;;21.17;67.54
80198;BME280;69517;52.030;7.106;2024-03-25T01:12:52;99704.09;;;21.17;67.39
80198;BME280;69517;52.030;7.106;2024-03-25T01:15:17;99700.88;;;21.14;67.53
80198;BME280;69517;52.030;7.106;2024-03-25T01:17:44;99693.81;;;21.14;67.46
80198;BME280;69517;52.030;7.106;2024-03-25T01:20:09;99693.81;;;21.14;67.38
80198;BME280;69517;52.030;7.106;2024-03-25T01:22:36;99700.88;;;21.14;67.46
80198;BME280;69517;52.030;7.106;2024-03-25T01:25:03;99701.25;;;21.09;67.60
80198;BME280;69517;52.030;7.106;2024-03-25T01:27:29;99707.91;;;21.13;67.45
80198;BME280;69517;52.030;7.106;2024-03-25T01:29:55;99706.34;;;21.11;67.37
80198;BME280;69517;52.030;7.106;2024-03-25T01:32:21;99706.50;;;21.09;67.50
80198;BME280;69517;52.030;7.106;2024-03-25T01:34:47;99703.59;;;21.12;67.44
80198;BME280;69517;52.030;7.106;2024-03-25T01:37:13;99707.06;;;21.13;67.33
80198;BME280;69517;52.030;7.106;2024-03-25T01:39:38;99696.25;;;21.06;67.49
80198;BME280;69517;52.030;7.106;2024-03-25T01:42:06;99704.13;;;21.06;67.40
80198;BME280;69517;52.030;7.106;2024-03-25T01:44:31;99692.66;;;21.07;67.44
80198;BME280;69517;52.030;7.106;2024-03-25T01:46:58;99698.03;;;21.05;67.58
80198;BME280;69517;52.030;7.106;2024-03-25T01:49:24;99698.75;;;21.08;67.50
80198;BME280;69517;52.030;7.106;2024-03-25T01:51:50;99706.63;;;21.08;67.28
80198;BME280;69517;52.030;7.106;2024-03-25T01:54:16;99707.47;;;21.08;67.36
80198;BME280;69517;52.030;7.106;2024-03-25T01:56:42;99705.06;;;21.05;67.42
80198;BME280;69517;52.030;7.106;2024-03-25T01:59:10;99709.50;;;21.04;67.51
80198;BME280;69517;52.030;7.106;2024-03-25T02:01:37;99703.44;;;21.04;67.53
80198;BME280;69517;52.030;7.106;2024-03-25T02:04:02;99702.44;;;21.05;67.49
80198;BME280;69517;52.030;7.106;2024-03-25T02:06:28;99709.66;;;21.03;67.65
80198;BME280;69517;52.030;7.106;2024-03-25T02:08:55;99707.97;;;21.02;67.67
80198;BME280;69517;52.030;7.106;2024-03-25T02:11:22;99707.84;;;21.03;67.65
80198;BME280;69517;52.030;7.106;2024-03-25T02:13:48;99717.66;;;21.01;67.90
80198;BME280;69517;52.030;7.106;2024-03-25T02:16:17;99713.34;;;21.00;67.64
80198;BME280;69517;52.030;7.106;2024-03-25T02:18:42;99722.06;;;21.01;67.74
80198;BME280;69517;52.030;7.106;2024-03-25T02:21:08;99723.88;;;21.00;67.72
80198;BME280;69517;52.030;7.106;2024-03-25T02:23:34;99721.34;;;20.99;67.73
80198;BME280;69517;52.030;7.106;2024-03-25T02:26:02;99730.91;;;21.00;67.88
80198;BME280;69517;52.030;7.106;2024-03-25T02:28:28;99723.03;;;21.00;67.56
80198;BME280;69517;52.030;7.106;2024-03-25T02:30:54;99731.75;;;21.00;67.76
80198;BME280;69517;52.030;7.106;2024-03-25T02:33:19;99724.97;;;20.98;67.85
80198;BME280;69517;52.030;7.106;2024-03-25T02:35:46;99732.72;;;20.99;67.90
80198;BME280;69517;52.030;7.106;2024-03-25T02:38:11;99731.88;;;20.99;67.69
80198;BME280;69517;52.030;7.106;2024-03-25T02:40:39;99727.59;;;20.98;67.55
80198;BME280;69517;52.030;7.106;2024-03-25T02:43:06;99726.88;;;20.96;67.74
80198;BME280;69517;52.030;7.106;2024-03-25T02:45:33;99732.25;;;20.94;67.94
80198;BME280;69517;52.030;7.106;2024-03-25T02:47:58;99736.94;;;20.91;67.89
80198;BME280;69517;52.030;7.106;2024-03-25T02:50:25;99736.22;;;20.89;68.01
80198;BME280;69517;52.030;7.106;2024-03-25T02:52:50;99732.66;;;20.90;67.81
80198;BME280;69517;52.030;7.106;2024-03-25T02:55:17;99733.38;;;20.92;67.62
80198;BME280;69517;52.030;7.106;2024-03-25T02:57:42;99733.47;;;20.90;67.66
80198;BME280;69517;52.030;7.106;2024-03-25T03:00:10;99731.53;;;20.92;67.61
80198;BME280;69517;52.030;7.106;2024-03-25T03:02:36;99738.47;;;20.93;67.56
80198;BME280;69517;52.030;7.106;2024-03-25T03:05:02;99739.31;;;20.94;67.52
80198;BME280;69517;52.030;7.106;2024-03-25T03:07:29;99729.06;;;20.91;67.68
80198;BME280;69517;52.030;7.106;2024-03-25T03:09:55;99742.06;;;20.92;67.57
80198;BME280;69517;52.030;7.106;2024-03-25T03:12:20;99735.28;;;20.90;67.70
80198;BME280;69517;52.030;7.106;2024-03-25T03:14:47;99738.63;;;20.92;67.65
80198;BME280;69517;52.030;7.106;2024-03-25T03:17:14;99736.69;;;20.94;67.43
80198;BME280;69517;52.030;7.106;2024-03-25T03:19:40;99729.75;;;20.93;67.43
80198;BME280;69517;52.030;7.106;2024-03-25T03:22:06;99735.28;;;20.90;67.53
80198;BME280;69517;52.030;7.106;2024-03-25T03:24:32;99738.13;;;20.87;67.71
80198;BME280;69517;52.030;7.106;2024-03-25T03:26:58;99744.22;;;20.87;67.71
80198;BME280;69517;52.030;7.106;2024-03-25T03:29:24;99746.28;;;20.84;67.91
80198;BME280;69517;52.030;7.106;2024-03-25T03:31:50;99739.94;;;20.86;67.73
80198;BME280;69517;52.030;7.106;2024-03-25T03:34:17;99741.03;;;20.84;67.82
80198;BME280;69517;52.030;7.106;2024-03-25T03:36:43;99746.28;;;20.84;67.78
80198;BME280;69517;52.030;7.106;2024-03-25T03:39:08;99754.41;;;20.81;67.94
80198;BME280;69517;52.030;7.106;2024-03-25T03:41:35;99755.13;;;20.83;67.83
80198;BME280;69517;52.030;7.106;2024-03-25T03:44:01;99759.81;;;20.79;67.96
80198;BME280;69517;52.030;7.106;2024-03-25T03:46:27;99754.28;;;20.82;67.89
80198;BME280;69517;52.030;7.106;2024-03-25T03:48:52;99756.34;;;20.79;67.98
80198;BME280;69517;52.030;7.106;2024-03-25T03:51:20;99761.59;;;20.79;67.97
80198;BME280;69517;52.030;7.106;2024-03-25T03:53:45;99760.50;;;20.81;67.77
80198;BME280;69517;52.030;7.106;2024-03-25T03:56:12;99753.34;;;20.83;67.75
80198;BME280;69517;52.030;7.106;2024-03-25T03:58:37;99754.41;;;20.81;67.77
80198;BME280;69517;52.030;7.106;2024-03-25T04:01:03;99756.47;;;20.77;67.89
80198;BME280;69517;52.030;7.106;2024-03-25T04:03:29;99753.72;;;20.79;67.83
80198;BME280;69517;52.030;7.106;2024-03-25T04:05:56;99758.50;;;20.74;68.12
80198;BME280;69517;52.030;7.106;2024-03-25T04:08:22;99756.56;;;20.76;67.91
80198;BME280;69517;52.030;7.106;2024-03-25T04:10:49;99753.00;;;20.77;67.81
80198;BME280;69517;52.030;7.106;2024-03-25T04:13:14;99753.72;;;20.79;67.72
80198;BME280;69517;52.030;7.106;2024-03-25T04:15:40;99742.50;;;20.77;67.86
80198;BME280;69517;52.030;7.106;2024-03-25T04:18:07;99746.78;;;20.78;67.79
80198;BME280;69517;52.030;7.106;2024-03-25T04:20:36;99754.41;;;20.81;67.73
80198;BME280;69517;52.030;7.106;2024-03-25T04:23:01;99754.28;;;20.82;67.68
80198;BME280;69517;52.030;7.106;2024-03-25T04:25:29;99744.50;;;20.84;67.67
80198;BME280;69517;52.030;7.106;2024-03-25T04:27:55;99745.06;;;20.88;67.37
80198;BME280;69517;52.030;7.106;2024-03-25T04:30:22;99752.81;;;20.89;67.37
80198;BME280;69517;52.030;7.106;2024-03-25T04:32:47;99751.88;;;20.90;67.36
80198;BME280;69517;52.030;7.106;2024-03-25T04:35:13;99750.78;;;20.93;67.28
80198;BME280;69517;52.030;7.106;2024-03-25T04:37:39;99752.31;;;20.95;67.20
80198;BME280;69517;52.030;7.106;2024-03-25T04:40:05;99753.16;;;20.96;67.24
80198;BME280;69517;52.030;7.106;2024-03-25T04:42:32;99749.56;;;20.97;67.22
80198;BME280;69517;52.030;7.106;2024-03-25T04:44:58;99751.09;;;20.99;67.22
80198;BME280;69517;52.030;7.106;2024-03-25T04:47:23;99746.69;;;21.00;67.50
80198;BME280;69517;52.030;7.106;2024-03-25T04:49:49;99755.41;;;21.00;67.42
80198;BME280;69517;52.030;7.106;2024-03-25T04:52:14;99745.72;;;21.01;67.56
80198;BME280;69517;52.030;7.106;2024-03-25T04:54:40;99748.22;;;21.02;67.33
80198;BME280;69517;52.030;7.106;2024-03-25T04:57:06;99745.59;;;21.02;67.45
80198;BME280;69517;52.030;7.106;2024-03-25T04:59:32;99751.69;;;21.03;67.44
80198;BME280;69517;52.030;7.106;2024-03-25T05:01:58;99752.38;;;21.05;67.48
80198;BME280;69517;52.030;7.106;2024-03-25T05:04:24;99757.63;;;21.05;67.33
80198;BME280;69517;52.030;7.106;2024-03-25T05:06:49;99752.38;;;21.05;67.38
80198;BME280;69517;52.030;7.106;2024-03-25T05:09:15;99763.63;;;21.07;67.61
80198;BME280;69517;52.030;7.106;2024-03-25T05:11:40;99762.66;;;21.08;67.51
80198;BME280;69517;52.030;7.106;2024-03-25T05:14:06;99757.41;;;21.08;67.26
80198;BME280;69517;52.030;7.106;2024-03-25T05:16:32;99760.88;;;21.09;67.33
80198;BME280;69517;52.030;7.106;2024-03-25T05:18:58;99764.34;;;21.09;67.33
80198;BME280;69517;52.030;7.106;2024-03-25T05:21:23;99764.34;;;21.09;67.33
80198;BME280;69517;52.030;7.106;2024-03-25T05:23:49;99762.38;;;21.11;67.47
80198;BME280;69517;52.030;7.106;2024-03-25T05:26:14;99773.63;;;21.13;67.31
80198;BME280;69517;52.030;7.106;2024-03-25T05:28:39;99771.00;;;21.13;67.44
80198;BME280;69517;52.030;7.106;2024-03-25T05:31:05;99777.09;;;21.14;67.42
80198;BME280;69517;52.030;7.106;2024-03-25T05:33:32;99776.13;;;21.15;67.32
80198;BME280;69517;52.030;7.106;2024-03-25T05:35:58;99785.81;;;21.14;67.39
80198;BME280;69517;52.030;7.106;2024-03-25T05:38:23;99783.19;;;21.14;67.44
80198;BME280;69517;52.030;7.106;2024-03-25T05:40:49;99786.56;;;21.16;67.41
80198;BME280;69517;52.030;7.106;2024-03-25T05:43:14;99782.94;;;21.17;67.38
80198;BME280;69517;52.030;7.106;2024-03-25T05:45:39;99790.81;;;21.17;67.31
80198;BME280;69517;52.030;7.106;2024-03-25T05:48:05;99783.78;;;21.18;67.48
80198;BME280;69517;52.030;7.106;2024-03-25T05:50:32;99779.34;;;21.18;67.34
80198;BME280;69517;52.030;7.106;2024-03-25T05:52:58;99781.97;;;21.18;67.52
80198;BME280;69517;52.030;7.106;2024-03-25T05:55:23;99790.72;;;21.19;67.45
80198;BME280;69517;52.030;7.106;2024-03-25T05:57:48;99784.50;;;21.20;67.37
80198;BME280;69517;52.030;7.106;2024-03-25T06:00:14;99780.31;;;21.17;67.37
80198;BME280;69517;52.030;7.106;2024-03-25T06:02:40;99783.53;;;21.21;67.49
80198;BME280;69517;52.030;7.106;2024-03-25T06:05:05;99783.53;;;21.21;67.59
80198;BME280;69517;52.030;7.106;2024-03-25T06:07:32;99785.34;;;21.20;67.47
80198;BME280;69517;52.030;7.106;2024-03-25T06:09:57;99780.06;;;21.20;67.50
80198;BME280;69517;52.030;7.106;2024-03-25T06:12:23;99787.00;;;21.21;67.46
80198;BME280;69517;52.030;7.106;2024-03-25T06:14:48;99788.69;;;21.22;67.55
80198;BME280;69517;52.030;7.106;2024-03-25T06:17:14;99786.03;;;21.22;67.39
80198;BME280;69517;52.030;7.106;2024-03-25T06:19:39;99791.31;;;21.22;67.52
80198;BME280;69517;52.030;7.106;2024-03-25T06:22:04;99793.78;;;21.24;67.35
80198;BME280;69517;52.030;7.106;2024-03-25T06:24:31;99793.78;;;21.24;67.40
80198;BME280;69517;52.030;7.106;2024-03-25T06:26:57;99793.78;;;21.24;67.30
80198;BME280;69517;52.030;7.106;2024-03-25T06:29:22;99797.13;;;21.26;67.32
80198;BME280;69517;52.030;7.106;2024-03-25T06:31:48;99796.28;;;21.25;67.49
80198;BME280;69517;52.030;7.106;2024-03-25T06:34:32;99795.44;;;21.25;67.62
80198;BME280;69517;52.030;7.106;2024-03-25T06:36:57;99794.50;;;21.26;67.46
80198;BME280;69517;52.030;7.106;2024-03-25T06:39:22;99800.59;;;21.26;67.32
80198;BME280;69517;52.030;7.106;2024-03-25T06:41:49;99798.81;;;21.27;67.29
80198;BME280;69517;52.030;7.106;2024-03-25T06:44:15;99799.63;;;21.27;67.27
80198;BME280;69517;52.030;7.106;2024-03-25T06:46:40;99805.06;;;21.35;67.09
80198;BME280;69517;52.030;7.106;2024-03-25T06:49:06;99803.88;;;21.39;66.84
80198;BME280;69517;52.030;7.106;2024-03-25T06:51:31;99814.72;;;21.46;66.96
80198;BME280;69517;52.030;7.106;2024-03-25T06:53:56;99812.53;;;21.51;66.60
80198;BME280;69517;52.030;7.106;2024-03-25T06:56:22;99807.97;;;21.53;66.64
80198;BME280;69517;52.030;7.106;2024-03-25T06:58:49;99812.97;;;21.56;66.43
80198;BME280;69517;52.030;7.106;2024-03-25T07:01:14;99810.06;;;21.59;66.57
80198;BME280;69517;52.030;7.106;2024-03-25T07:03:39;99807.19;;;21.62;66.44
80198;BME280;69517;52.030;7.106;2024-03-25T07:06:05;99812.34;;;21.64;66.50
80198;BME280;69517;52.030;7.106;2024-03-25T07:08:31;99808.75;;;21.65;66.42
80198;BME280;69517;52.030;7.106;2024-03-25T07:10:57;99811.22;;;21.66;66.37
80198;BME280;69517;52.030;7.106;2024-03-25T07:13:22;99813.72;;;21.68;66.49
80198;BME280;69517;52.030;7.106;2024-03-25T07:15:49;99803.94;;;21.70;66.34
80198;BME280;69517;52.030;7.106;2024-03-25T07:18:15;99810.16;;;21.69;66.45
80198;BME280;69517;52.030;7.106;2024-03-25T07:20:40;99811.66;;;21.71;66.45
80198;BME280;69517;52.030;7.106;2024-03-25T07:23:06;99808.91;;;21.73;66.30
80198;BME280;69517;52.030;7.106;2024-03-25T07:25:32;99805.19;;;21.75;66.22
80198;BME280;69517;52.030;7.106;2024-03-25T07:27:57;99816.56;;;21.76;66.28
80198;BME280;69517;52.030;7.106;2024-03-25T07:30:23;99813.94;;;21.76;66.35
80198;BME280;69517;52.030;7.106;2024-03-25T07:32:50;99816.56;;;21.76;66.55
80198;BME280;69517;52.030;7.106;2024-03-25T07:35:16;99810.59;;;21.74;66.18
80198;BME280;69517;52.030;7.106;2024-03-25T07:37:41;99814.06;;;21.74;66.13
80198;BME280;69517;52.030;7.106;2024-03-25T07:40:07;99817.63;;;21.73;66.06
80198;BME280;69517;52.030;7.106;2024-03-25T07:42:34;99815.00;;;21.73;65.85
80198;BME280;69517;52.030;7.106;2024-03-25T07:44:59;99824.69;;;21.73;65.80
80198;BME280;69517;52.030;7.106;2024-03-25T07:47:25;99828.16;;;21.73;65.72
80198;BME280;69517;52.030;7.106;2024-03-25T07:49:52;99825.66;;;21.72;65.62
80198;BME280;69517;52.030;7.106;2024-03-25T07:52:17;99824.69;;;21.73;65.48
80198;BME280;69517;52.030;7.106;2024-03-25T07:54:42;99820.41;;;21.72;65.38
80198;BME280;69517;52.030;7.106;2024-03-25T07:57:08;99823.28;;;20.30;55.79
80198;BME280;69517;52.030;7.106;2024-03-25T07:59:33;99829.47;;;19.15;54.62
80198;BME280;69517;52.030;7.106;2024-03-25T08:01:59;99835.75;;;19.36;57.08
80198;BME280;69517;52.030;7.106;2024-03-25T08:04:24;99835.91;;;20.03;57.24
80198;BME280;69517;52.030;7.106;2024-03-25T08:06:51;99825.66;;;20.44;57.86
80198;BME280;69517;52.030;7.106;2024-03-25T08:09:16;99823.47;;;20.72;58.05
80198;BME280;69517;52.030;7.106;2024-03-25T08:11:42;99827.22;;;20.90;57.88
80198;BME280;69517;52.030;7.106;2024-03-25T08:14:07;99829.59;;;21.04;57.69
80198;BME280;69517;52.030;7.106;2024-03-25T08:16:33;99835.03;;;21.12;57.71
80198;BME280;69517;52.030;7.106;2024-03-25T08:18:58;99830.75;;;21.22;58.00
80198;BME280;69517;52.030;7.106;2024-03-25T08:21:24;99833.22;;;21.24;58.46
80198;BME280;69517;52.030;7.106;2024-03-25T08:23:50;99821.75;;;21.25;58.83
80198;BME280;69517;52.030;7.106;2024-03-25T08:26:16;99824.25;;;21.26;59.39
80198;BME280;69517;52.030;7.106;2024-03-25T08:28:41;99824.97;;;21.28;59.59
80198;BME280;69517;52.030;7.106;2024-03-25T08:31:07;99833.81;;;21.27;59.93
80198;BME280;69517;52.030;7.106;2024-03-25T08:33:32;99825.09;;;21.27;60.42
80198;BME280;69517;52.030;7.106;2024-03-25T08:35:58;99825.78;;;21.29;60.50
80198;BME280;69517;52.030;7.106;2024-03-25T08:38:23;99829.97;;;21.31;60.73
80198;BME280;69517;52.030;7.106;2024-03-25T08:40:50;99825.16;;;21.36;60.56
80198;BME280;69517;52.030;7.106;2024-03-25T08:43:15;99830.41;;;21.36;60.67
80198;BME280;69517;52.030;7.106;2024-03-25T08:45:41;99830.28;;;21.38;60.80
80198;BME280;69517;52.030;7.106;2024-03-25T08:48:06;99832.81;;;21.39;61.00
80198;BME280;69517;52.030;7.106;2024-03-25T08:50:32;99827.38;;;21.41;61.20
80198;BME280;69517;52.030;7.106;2024-03-25T08:52:57;99822.28;;;21.39;61.50
80198;BME280;69517;52.030;7.106;2024-03-25T08:55:22;99822.13;;;21.41;61.58
80198;BME280;69517;52.030;7.106;2024-03-25T08:57:49;99826.44;;;21.42;61.80
80198;BME280;69517;52.030;7.106;2024-03-25T09:00:15;99824.75;;;21.41;61.93
80198;BME280;69517;52.030;7.106;2024-03-25T09:02:41;99824.63;;;21.42;62.11
80198;BME280;69517;52.030;7.106;2024-03-25T09:05:06;99825.59;;;21.41;62.28
80198;BME280;69517;52.030;7.106;2024-03-25T09:07:32;99827.28;;;21.42;62.41
80198;BME280;69517;52.030;7.106;2024-03-25T09:09:57;99829.06;;;21.42;62.57
80198;BME280;69517;52.030;7.106;2024-03-25T09:12:41;99827.53;;;21.39;62.73
80198;BME280;69517;52.030;7.106;2024-03-25T09:15:08;99825.75;;;21.40;62.86
80198;BME280;69517;52.030;7.106;2024-03-25T09:17:34;99823.25;;;21.38;62.82
80198;BME280;69517;52.030;7.106;2024-03-25T09:19:59;99833.75;;;21.38;62.86
80198;BME280;69517;52.030;7.106;2024-03-25T09:22:25;99833.75;;;21.38;63.00
80198;BME280;69517;52.030;7.106;2024-03-25T09:24:50;99831.13;;;21.38;62.91
80198;BME280;69517;52.030;7.106;2024-03-25T09:27:16;99830.16;;;21.39;63.00
80198;BME280;69517;52.030;7.106;2024-03-25T09:29:41;99831.84;;;21.40;63.08
80198;BME280;69517;52.030;7.106;2024-03-25T09:32:08;99827.16;;;21.44;63.07
80198;BME280;69517;52.030;7.106;2024-03-25T09:34:33;99820.66;;;21.48;63.09
80198;BME280;69517;52.030;7.106;2024-03-25T09:36:59;99822.66;;;21.56;63.01
80198;BME280;69517;52.030;7.106;2024-03-25T09:39:24;99814.44;;;21.70;62.94
80198;BME280;69517;52.030;7.106;2024-03-25T09:41:50;99819.00;;;21.68;62.81
80198;BME280;69517;52.030;7.106;2024-03-25T09:44:16;99822.03;;;21.63;63.24
80198;BME280;69517;52.030;7.106;2024-03-25T09:46:44;99820.47;;;21.61;63.40
80198;BME280;69517;52.030;7.106;2024-03-25T09:49:11;99817.06;;;21.70;64.03
80198;BME280;69517;52.030;7.106;2024-03-25T09:51:36;99815.38;;;21.90;64.20
80198;BME280;69517;52.030;7.106;2024-03-25T09:54:02;99815.75;;;21.85;64.22
80198;BME280;69517;52.030;7.106;2024-03-25T09:56:28;99811.84;;;21.79;64.13
80198;BME280;69517;52.030;7.106;2024-03-25T09:58:54;99817.75;;;21.72;64.99
80198;BME280;69517;52.030;7.106;2024-03-25T10:01:19;99812.91;;;21.67;64.62
80198;BME280;69517;52.030;7.106;2024-03-25T10:03:45;99813.53;;;21.60;63.84
80198;BME280;69517;52.030;7.106;2024-03-25T10:06:12;99814.66;;;21.57;62.76
80198;BME280;69517;52.030;7.106;2024-03-25T10:08:37;99823.63;;;21.55;61.74
80198;BME280;69517;52.030;7.106;2024-03-25T10:11:03;99818.47;;;21.53;60.88
80198;BME280;69517;52.030;7.106;2024-03-25T10:13:28;99825.69;;;21.51;60.66
80198;BME280;69517;52.030;7.106;2024-03-25T10:15:54;99818.75;;;21.50;60.70
80198;BME280;69517;52.030;7.106;2024-03-25T10:18:20;99811.94;;;21.48;60.78
80198;BME280;69517;52.030;7.106;2024-03-25T10:20:48;99822.47;;;21.48;60.80
80198;BME280;69517;52.030;7.106;2024-03-25T10:23:15;99813.72;;;21.47;60.66
80198;BME280;69517;52.030;7.106;2024-03-25T10:25:41;99808.63;;;21.45;60.35
80198;BME280;69517;52.030;7.106;2024-03-25T10:28:06;99813.88;;;21.45;60.35
80198;BME280;69517;52.030;7.106;2024-03-25T10:30:33;99812.22;;;21.44;60.31
80198;BME280;69517;52.030;7.106;2024-03-25T10:32:59;99810.53;;;21.43;60.18
80198;BME280;69517;52.030;7.106;2024-03-25T10:35:26;99799.31;;;21.41;59.65
80198;BME280;69517;52.030;7.106;2024-03-25T10:37:51;99803.88;;;21.39;58.90
80198;BME280;69517;52.030;7.106;2024-03-25T10:40:19;99801.25;;;21.39;58.62
80198;BME280;69517;52.030;7.106;2024-03-25T10:42:45;99806.50;;;21.39;58.00
80198;BME280;69517;52.030;7.106;2024-03-25T10:45:11;99798.34;;;21.42;57.30
80198;BME280;69517;52.030;7.106;2024-03-25T10:47:36;99791.41;;;21.41;57.62
80198;BME280;69517;52.030;7.106;2024-03-25T10:50:04;99794.03;;;21.41;57.40
80198;BME280;69517;52.030;7.106;2024-03-25T10:52:33;99790.56;;;21.41;56.88
80198;BME280;69517;52.030;7.106;2024-03-25T10:54:58;99784.50;;;21.40;56.49
80198;BME280;69517;52.030;7.106;2024-03-25T10:57:25;99781.88;;;21.40;56.34
80198;BME280;69517;52.030;7.106;2024-03-25T10:59:51;99775.91;;;21.38;56.28
80198;BME280;69517;52.030;7.106;2024-03-25T11:02:17;99773.16;;;21.40;56.06
80198;BME280;69517;52.030;7.106;2024-03-25T11:04:44;99770.66;;;21.38;55.37
80198;BME280;69517;52.030;7.106;2024-03-25T11:07:10;99767.06;;;21.39;55.56
80198;BME280;69517;52.030;7.106;2024-03-25T11:09:36;99768.84;;;21.39;55.57
80198;BME280;69517;52.030;7.106;2024-03-25T11:12:01;99764.44;;;21.39;55.14
80198;BME280;69517;52.030;7.106;2024-03-25T11:14:28;99761.66;;;21.41;55.24
80198;BME280;69517;52.030;7.106;2024-03-25T11:16:53;99752.81;;;21.42;54.78
80198;BME280;69517;52.030;7.106;2024-03-25T11:19:20;99758.91;;;21.42;55.51
80198;BME280;69517;52.030;7.106;2024-03-25T11:21:46;99749.34;;;21.41;56.22
80198;BME280;69517;52.030;7.106;2024-03-25T11:24:11;99744.78;;;21.43;56.77
80198;BME280;69517;52.030;7.106;2024-03-25T11:26:40;99748.13;;;21.45;57.25
80198;BME280;69517;52.030;7.106;2024-03-25T11:29:06;99749.53;;;21.50;57.71
80198;BME280;69517;52.030;7.106;2024-03-25T11:31:33;99746.78;;;21.51;58.15
80198;BME280;69517;52.030;7.106;2024-03-25T11:34:03;99752.03;;;21.51;58.72
80198;BME280;69517;52.030;7.106;2024-03-25T11:36:28;99745.00;;;21.52;59.05
80198;BME280;69517;52.030;7.106;2024-03-25T11:38:57;99742.34;;;21.52;59.56
80198;BME280;69517;52.030;7.106;2024-03-25T11:41:23;99736.13;;;21.53;59.77
80198;BME280;69517;52.030;7.106;2024-03-25T11:43:48;99739.44;;;21.55;60.02
80198;BME280;69517;52.030;7.106;2024-03-25T11:46:16;99724.50;;;21.55;60.19
80198;BME280;69517;52.030;7.106;2024-03-25T11:48:43;99725.34;;;21.56;60.54
80198;BME280;69517;52.030;7.106;2024-03-25T11:51:10;99718.28;;;21.56;60.69
80198;BME280;69517;52.030;7.106;2024-03-25T11:53:36;99718.16;;;21.58;60.89
80198;BME280;69517;52.030;7.106;2024-03-25T11:56:01;99714.69;;;21.57;61.04
80198;BME280;69517;52.030;7.106;2024-03-25T11:58:27;99717.34;;;21.57;61.09
80198;BME280;69517;52.030;7.106;2024-03-25T12:00:53;99716.50;;;21.57;61.22
80198;BME280;69517;52.030;7.106;2024-03-25T12:03:19;99712.91;;;21.58;61.24
80198;BME280;69517;52.030;7.106;2024-03-25T12:05:46;99713.75;;;21.58;61.26
80198;BME280;69517;52.030;7.106;2024-03-25T12:08:11;99714.56;;;21.59;61.47
80198;BME280;69517;52.030;7.106;2024-03-25T12:10:37;99708.31;;;21.60;61.45
80198;BME280;69517;52.030;7.106;2024-03-25T12:13:21;99708.19;;;21.61;61.53
80198;BME280;69517;52.030;7.106;2024-03-25T12:15:46;99695.88;;;21.62;61.63
80198;BME280;69517;52.030;7.106;2024-03-25T12:18:12;99690.63;;;21.62;61.69
80198;BME280;69517;52.030;7.106;2024-03-25T12:20:38;99694.09;;;21.62;61.81
80198;BME280;69517;52.030;7.106;2024-03-25T12:23:05;99688.69;;;21.64;61.72
80198;BME280;69517;52.030;7.106;2024-03-25T12:25:30;99690.50;;;21.63;61.78
80198;BME280;69517;52.030;7.106;2024-03-25T12:27:56;99690.50;;;21.63;61.93
80198;BME280;69517;52.030;7.106;2024-03-25T12:30:22;99688.81;;;21.62;62.04
80198;BME280;69517;52.030;7.106;2024-03-25T12:32:47;99675.69;;;21.62;62.14
80198;BME280;69517;52.030;7.106;2024-03-25T12:35:14;99658.94;;;21.63;62.36
80198;BME280;69517;52.030;7.106;2024-03-25T12:37:40;99649.94;;;21.66;62.21
80198;BME280;69517;52.030;7.106;2024-03-25T12:40:09;99633.31;;;21.65;62.14
80198;BME280;69517;52.030;7.106;2024-03-25T12:42:35;99661.44;;;21.65;62.18
80198;BME280;69517;52.030;7.106;2024-03-25T12:45:00;99658.66;;;21.66;62.10
80198;BME280;69517;52.030;7.106;2024-03-25T12:47:25;99652.56;;;21.66;62.18
80198;BME280;69517;52.030;7.106;2024-03-25T12:49:51;99652.44;;;21.67;62.26
80198;BME280;69517;52.030;7.106;2024-03-25T12:52:16;99656.84;;;21.67;62.44
80198;BME280;69517;52.030;7.106;2024-03-25T12:54:42;99641.78;;;21.69;62.41